Time;durP1;ratioP1;P1;durP2;ratioP2;P2;SDS_P1;SDS_P2;PMS_P1;PMS_P2;Temp;Humidity;BMP_temperature;BMP_pressure;BME280_temperature;BME280_humidity;BME280_pressure;Samples;Min_cycle;Max_cycle;Signal;HPM_P1;HPM_P2
2021/07/04 00:01:33;;;;;;;4.53;3.80;;;;;;;20.01;70.14;100187.81;5044980;28;20095;-74
2021/07/04 00:03:58;;;;;;;5.45;4.13;;;;;;;19.97;70.94;100189.28;5026761;28;20051;-74
2021/07/04 00:06:23;;;;;;;5.10;4.20;;;;;;;19.97;70.36;100183.94;5025371;28;20041;-74
2021/07/04 00:08:49;;;;;;;5.20;4.00;;;;;;;19.94;70.16;100179.84;5026433;28;20034;-75
2021/07/04 00:11:14;;;;;;;4.55;3.90;;;;;;;19.94;70.45;100181.69;5031131;28;20444;-74
2021/07/04 00:13:40;;;;;;;4.90;4.00;;;;;;;19.89;71.35;100177.00;5033446;28;20516;-74
2021/07/04 00:16:07;;;;;;;4.88;3.85;;;;;;;19.86;70.59;100171.28;5030445;28;20026;-75
2021/07/04 00:18:34;;;;;;;5.10;4.15;;;;;;;19.79;71.92;100176.69;5026256;28;20034;-73
2021/07/04 00:21:07;;;;;;;4.75;3.83;;;;;;;19.73;71.75;100173.03;5029931;28;20036;-75
2021/07/04 00:23:34;;;;;;;5.15;4.13;;;;;;;19.71;71.39;100172.44;5047353;28;20045;-74
2021/07/04 00:26:01;;;;;;;5.25;3.70;;;;;;;19.70;71.76;100173.47;5063130;28;20386;-74
2021/07/04 00:28:27;;;;;;;4.90;3.83;;;;;;;19.71;71.51;100172.44;5039686;28;20041;-74
2021/07/04 00:30:54;;;;;;;4.45;3.90;;;;;;;19.65;71.98;100167.91;5045768;28;20033;-74
2021/07/04 00:33:23;;;;;;;5.45;4.05;;;;;;;19.62;71.62;100167.53;5031144;28;20042;-74
2021/07/04 00:35:51;;;;;;;6.10;4.13;;;;;;;19.65;71.47;100167.91;5035895;28;20084;-74
2021/07/04 00:38:17;;;;;;;4.53;3.83;;;;;;;19.61;71.61;100171.25;5030484;28;20049;-74
2021/07/04 00:40:43;;;;;;;5.00;3.90;;;;;;;19.59;71.91;100178.69;5037237;28;20029;-75
2021/07/04 00:43:10;;;;;;;5.50;3.80;;;;;;;19.58;72.06;100172.50;5036859;28;20038;-74
2021/07/04 00:45:36;;;;;;;5.03;3.70;;;;;;;19.54;71.75;100173.97;5012657;28;20431;-74
2021/07/04 00:48:05;;;;;;;5.53;4.05;;;;;;;19.53;71.67;100181.22;5032485;28;20059;-74
2021/07/04 00:50:32;;;;;;;4.80;3.58;;;;;;;19.56;71.52;100179.13;5011248;28;20728;-74
2021/07/04 00:53:00;;;;;;;5.45;4.20;;;;;;;19.48;72.37;100180.25;5045425;28;20044;-74
2021/07/04 00:55:27;;;;;;;4.85;3.80;;;;;;;19.48;71.63;100172.19;5029677;28;20121;-74
2021/07/04 00:57:53;;;;;;;4.97;3.58;;;;;;;19.44;72.06;100168.28;5023140;28;20041;-74
2021/07/04 01:00:23;;;;;;;4.10;3.55;;;;;;;19.46;72.00;100166.22;5028498;28;20171;-74
2021/07/04 01:02:49;;;;;;;5.03;3.95;;;;;;;19.46;71.79;100163.53;5031055;28;20120;-74
2021/07/04 01:05:22;;;;;;;5.15;4.20;;;;;;;19.37;72.68;100164.84;5045202;28;20116;-74
2021/07/04 01:07:49;;;;;;;4.68;3.70;;;;;;;19.42;72.80;100156.97;5028624;28;20076;-74
2021/07/04 01:10:19;;;;;;;4.20;3.40;;;;;;;19.42;72.42;100156.97;5026351;28;20584;-74
2021/07/04 01:12:47;;;;;;;4.85;3.50;;;;;;;19.40;71.91;100159.03;5028280;28;20037;-74
2021/07/04 01:15:18;;;;;;;5.60;3.95;;;;;;;19.40;71.77;100156.34;5028651;28;20029;-74
2021/07/04 01:17:46;;;;;;;4.78;4.18;;;;;;;19.37;71.99;100152.25;5029180;28;20099;-74
2021/07/04 01:20:14;;;;;;;4.57;3.92;;;;;;;19.38;72.21;100145.88;5044720;28;20064;-74
2021/07/04 01:22:41;;;;;;;5.57;4.10;;;;;;;19.36;72.49;100147.13;5029981;28;20036;-74
2021/07/04 01:25:15;;;;;;;5.28;4.10;;;;;;;19.34;72.94;100143.84;5034083;28;20394;-74
2021/07/04 01:27:41;;;;;;;6.53;4.57;;;;;;;19.35;72.66;100143.59;5050954;28;20037;-74
2021/07/04 01:30:10;;;;;;;5.30;4.20;;;;;;;19.28;73.53;100140.16;5043894;28;20032;-74
2021/07/04 01:32:37;;;;;;;4.53;3.70;;;;;;;19.33;72.13;100143.03;5034593;28;20567;-74
2021/07/04 01:35:07;;;;;;;4.97;4.10;;;;;;;19.33;72.46;100140.34;5031526;28;20041;-74
2021/07/04 01:37:33;;;;;;;5.75;4.13;;;;;;;19.31;72.51;100135.19;5028511;28;20041;-74
2021/07/04 01:40:00;;;;;;;5.93;3.80;;;;;;;19.29;72.41;100133.78;5044358;28;20799;-74
2021/07/04 01:42:26;;;;;;;4.03;3.50;;;;;;;19.23;73.12;100138.13;5029532;28;20128;-74
2021/07/04 01:44:53;;;;;;;4.95;3.95;;;;;;;19.22;73.03;100138.38;5034087;28;20045;-74
2021/07/04 01:47:19;;;;;;;5.20;4.25;;;;;;;19.21;73.33;100145.59;5020342;28;20084;-73
2021/07/04 01:49:44;;;;;;;5.50;3.97;;;;;;;19.16;73.00;100140.03;5010873;28;20407;-74
2021/07/04 01:52:10;;;;;;;5.28;4.00;;;;;;;19.13;73.29;100137.81;5018978;28;20036;-74
2021/07/04 01:54:36;;;;;;;5.22;4.28;;;;;;;19.09;73.45;100139.28;5029846;28;20021;-74
2021/07/04 01:57:11;;;;;;;5.25;4.07;;;;;;;19.07;73.46;100136.81;5029158;28;20116;-74
2021/07/04 01:59:39;;;;;;;6.30;4.25;;;;;;;19.04;73.67;100139.09;5028751;28;20268;-75
2021/07/04 02:02:04;;;;;;;4.45;3.80;;;;;;;19.05;73.62;100144.25;5044721;28;20033;-74
2021/07/04 02:04:29;;;;;;;5.72;4.15;;;;;;;19.04;73.50;100145.31;5026934;28;20592;-74
2021/07/04 02:06:55;;;;;;;7.57;4.68;;;;;;;19.01;73.95;100132.31;5029089;28;20052;-74
2021/07/04 02:09:21;;;;;;;6.00;4.63;;;;;;;19.01;74.17;100132.31;5029243;28;20021;-74
2021/07/04 02:11:46;;;;;;;7.47;4.80;;;;;;;18.98;74.93;100130.09;5029095;28;20044;-73
2021/07/04 02:14:13;;;;;;;5.45;4.65;;;;;;;18.98;74.60;100130.09;5028273;28;20026;-74
2021/07/04 02:16:39;;;;;;;5.40;4.32;;;;;;;18.90;76.60;100130.31;5045298;28;20037;-73
2021/07/04 02:19:04;;;;;;;6.65;4.82;;;;;;;18.88;75.46;100129.75;5028752;28;20029;-74
2021/07/04 02:21:30;;;;;;;6.07;4.72;;;;;;;18.86;76.44;100137.16;5030670;28;20040;-74
2021/07/04 02:23:56;;;;;;;7.15;4.70;;;;;;;18.87;75.44;100136.13;5038477;28;20120;-74
2021/07/04 02:26:22;;;;;;;7.03;4.97;;;;;;;18.85;75.93;100133.69;5042882;28;20523;-74
2021/07/04 02:28:48;;;;;;;6.60;4.53;;;;;;;18.86;75.85;100129.94;5035690;28;20565;-74
2021/07/04 02:31:18;;;;;;;6.57;5.20;;;;;;;18.86;76.11;100127.28;5051235;28;20029;-74
2021/07/04 02:33:44;;;;;;;6.68;5.47;;;;;;;18.82;76.72;100125.25;5056929;28;20040;-73
2021/07/04 02:36:10;;;;;;;6.45;4.78;;;;;;;18.82;77.59;100136.78;5033327;28;20116;-73
2021/07/04 02:38:36;;;;;;;6.20;5.05;;;;;;;18.83;77.10;100133.06;5036287;28;20121;-75
2021/07/04 02:41:03;;;;;;;6.30;5.22;;;;;;;18.81;77.45;100137.81;5034873;28;20034;-76
2021/07/04 02:43:28;;;;;;;6.68;5.10;;;;;;;18.85;76.93;100146.22;5036221;28;20033;-75
2021/07/04 02:45:55;;;;;;;6.05;5.10;;;;;;;18.84;76.70;100141.91;5033796;28;20112;-75
2021/07/04 02:48:21;;;;;;;6.45;5.15;;;;;;;18.83;76.93;100138.44;5050145;28;20103;-75
2021/07/04 02:50:48;;;;;;;6.13;4.78;;;;;;;18.83;76.96;100133.06;5049804;28;20099;-73
2021/07/04 02:53:14;;;;;;;7.15;5.63;;;;;;;18.84;76.92;100132.03;5016227;28;20514;-73
2021/07/04 02:55:41;;;;;;;6.90;5.47;;;;;;;18.88;76.45;100135.91;5027338;28;20037;-74
2021/07/04 02:58:07;;;;;;;11.70;6.30;;;;;;;18.89;76.58;100134.06;5035812;28;20398;-74
2021/07/04 03:00:34;;;;;;;7.22;5.22;;;;;;;18.89;76.78;100132.19;5042165;28;20033;-74
2021/07/04 03:02:59;;;;;;;6.88;5.28;;;;;;;18.84;78.13;100128.53;5034312;28;20033;-75
2021/07/04 03:05:25;;;;;;;7.18;5.28;;;;;;;18.91;76.72;100123.94;5026620;28;20033;-75
2021/07/04 03:07:50;;;;;;;5.68;4.93;;;;;;;18.88;77.21;100130.56;5036175;28;20096;-75
2021/07/04 03:10:19;;;;;;;7.50;5.07;;;;;;;18.91;76.79;100125.81;5033956;28;20467;-74
2021/07/04 03:12:45;;;;;;;7.50;4.85;;;;;;;18.93;76.62;100131.78;5044976;28;20080;-74
2021/07/04 03:15:12;;;;;;;6.97;5.70;;;;;;;18.93;76.71;100129.09;5037578;28;20037;-74
2021/07/04 03:17:38;;;;;;;6.70;4.72;;;;;;;18.89;77.35;100121.47;5036438;28;20451;-74
2021/07/04 03:20:11;;;;;;;6.63;5.43;;;;;;;18.94;77.39;100128.06;5033977;28;20101;-74
2021/07/04 03:22:37;;;;;;;7.05;5.45;;;;;;;18.91;77.85;100123.94;5035784;28;20052;-74
2021/07/04 03:25:04;;;;;;;6.93;5.38;;;;;;;18.95;77.11;100122.47;5038616;28;20025;-74
2021/07/04 03:27:29;;;;;;;7.00;5.28;;;;;;;18.97;77.29;100120.38;5055911;28;20068;-77
2021/07/04 03:29:54;;;;;;;6.00;5.20;;;;;;;18.98;76.96;100127.41;5038624;28;20095;-75
2021/07/04 03:32:20;;;;;;;6.28;5.25;;;;;;;19.02;76.83;100122.41;5035460;28;20033;-75
2021/07/04 03:34:45;;;;;;;6.07;4.80;;;;;;;19.00;77.83;100125.34;5052077;28;20028;-75
2021/07/04 03:37:10;;;;;;;8.00;5.13;;;;;;;19.04;77.09;100121.19;5037004;28;20029;-74
2021/07/04 03:39:36;;;;;;;5.70;4.78;;;;;;;19.03;77.32;100121.41;5032390;28;20498;-75
2021/07/04 03:42:01;;;;;;;6.13;4.78;;;;;;;19.04;76.63;100121.19;5031662;28;20107;-74
2021/07/04 03:44:27;;;;;;;5.50;4.47;;;;;;;19.07;76.56;100117.25;5031182;28;20041;-74
2021/07/04 03:46:52;;;;;;;5.75;4.70;;;;;;;19.07;77.01;100119.94;5035698;28;20052;-74
2021/07/04 03:49:17;;;;;;;6.67;5.37;;;;;;;19.11;76.30;100118.44;5050534;28;20033;-74
2021/07/04 03:51:43;;;;;;;8.63;5.13;;;;;;;19.13;77.02;100121.72;5031592;28;20280;-74
2021/07/04 03:54:08;;;;;;;6.57;5.25;;;;;;;19.17;76.52;100122.13;5030997;28;20511;-75
2021/07/04 03:56:34;;;;;;;6.30;4.93;;;;;;;19.15;76.29;100125.00;5031737;28;20457;-75
2021/07/04 03:58:59;;;;;;;6.75;5.13;;;;;;;19.10;77.48;100120.31;5032230;28;20120;-74
2021/07/04 04:01:25;;;;;;;6.18;5.00;;;;;;;19.10;76.73;100122.97;5031246;28;20041;-74
2021/07/04 04:03:50;;;;;;;6.15;4.90;;;;;;;19.07;77.42;100131.47;5032102;28;20040;-74
2021/07/04 04:06:16;;;;;;;6.75;5.22;;;;;;;19.13;76.63;100127.09;5030650;28;20041;-74
2021/07/04 04:08:44;;;;;;;5.90;4.97;;;;;;;19.15;76.24;100130.38;5031955;28;20113;-74
2021/07/04 04:11:11;;;;;;;6.60;5.32;;;;;;;19.12;76.72;100133.50;5023950;28;20042;-74
2021/07/04 04:13:37;;;;;;;6.43;5.15;;;;;;;19.09;77.20;100124.03;5047701;28;20033;-74
2021/07/04 04:16:03;;;;;;;6.65;5.00;;;;;;;19.15;76.63;100133.06;5035388;28;20037;-75
2021/07/04 04:18:28;;;;;;;6.32;5.22;;;;;;;19.19;76.15;100134.25;5046938;28;20033;-74
2021/07/04 04:20:56;;;;;;;7.70;5.55;;;;;;;19.21;76.42;100134.88;5025774;28;20038;-75
2021/07/04 04:23:24;;;;;;;5.88;4.80;;;;;;;19.22;76.07;100136.50;5021555;28;20049;-74
2021/07/04 04:25:50;;;;;;;5.28;4.70;;;;;;;19.22;76.70;100143.72;5038514;28;20033;-74
2021/07/04 04:28:16;;;;;;;6.43;4.70;;;;;;;19.25;76.41;100130.69;5030771;28;20038;-74
2021/07/04 04:30:41;;;;;;;6.00;4.65;;;;;;;19.28;76.20;100127.59;5021966;28;20042;-74
2021/07/04 04:33:06;;;;;;;7.22;5.30;;;;;;;19.29;76.03;100126.53;5038295;28;20029;-74
2021/07/04 04:35:31;;;;;;;7.57;5.50;;;;;;;19.31;76.15;100129.84;5041131;28;20036;-74
2021/07/04 04:37:57;;;;;;;5.90;4.80;;;;;;;19.34;76.31;100127.75;5027961;28;20287;-74
2021/07/04 04:40:23;;;;;;;6.10;4.70;;;;;;;19.35;76.11;100124.03;5028760;28;20112;-75
2021/07/04 04:42:49;;;;;;;6.07;4.88;;;;;;;19.36;76.16;100125.69;5026607;28;20030;-74
2021/07/04 04:45:14;;;;;;;5.70;4.72;;;;;;;19.39;75.70;100119.88;5030901;28;20037;-74
2021/07/04 04:47:40;;;;;;;5.82;4.70;;;;;;;19.40;75.81;100125.03;5040913;28;20123;-74
2021/07/04 04:50:07;;;;;;;6.95;4.50;;;;;;;19.39;76.05;100123.38;5048106;28;20037;-74
2021/07/04 04:52:33;;;;;;;5.55;4.25;;;;;;;19.45;75.48;100124.34;5031092;28;20083;-74
2021/07/04 04:54:58;;;;;;;6.65;4.70;;;;;;;19.45;75.60;100113.63;5017688;28;20042;-74
2021/07/04 04:57:23;;;;;;;6.60;5.18;;;;;;;19.45;75.92;100114.47;5013418;28;20501;-74
2021/07/04 04:59:49;;;;;;;7.80;4.40;;;;;;;19.47;75.74;100106.19;5021858;28;20043;-74
2021/07/04 05:02:14;;;;;;;6.68;4.88;;;;;;;19.49;75.88;100104.09;5030515;28;20087;-74
2021/07/04 05:04:39;;;;;;;6.25;5.00;;;;;;;19.48;76.10;100107.84;5019779;28;20407;-74
2021/07/04 05:07:07;;;;;;;5.35;4.40;;;;;;;19.58;75.56;100108.13;5011040;28;20046;-74
2021/07/04 05:09:32;;;;;;;6.82;4.68;;;;;;;19.69;75.30;100102.09;5027744;28;20102;-74
2021/07/04 05:11:57;;;;;;;8.25;5.28;;;;;;;19.80;74.67;100107.75;5022351;28;20118;-74
2021/07/04 05:14:22;;;;;;;6.97;5.25;;;;;;;19.70;75.48;100105.59;5032144;28;20084;-75
2021/07/04 05:16:48;;;;;;;6.53;4.95;;;;;;;19.79;74.87;100104.25;5029272;28;20034;-74
2021/07/04 05:19:13;;;;;;;5.35;4.55;;;;;;;19.82;74.90;100108.34;5026601;28;20026;-74
2021/07/04 05:21:39;;;;;;;5.82;4.78;;;;;;;19.76;75.09;100104.69;5027577;28;20037;-74
2021/07/04 05:24:06;;;;;;;6.15;4.80;;;;;;;19.82;75.00;100103.78;5032898;28;20037;-74
2021/07/04 05:26:32;;;;;;;5.97;4.72;;;;;;;19.87;74.89;100095.91;5037592;28;20033;-74
2021/07/04 05:28:58;;;;;;;7.10;5.22;;;;;;;19.90;74.90;100094.63;5028789;28;20037;-74
2021/07/04 05:31:24;;;;;;;6.30;4.90;;;;;;;19.89;74.92;100093.81;5021350;28;20506;-74
2021/07/04 05:33:50;;;;;;;6.95;5.38;;;;;;;19.94;74.63;100095.81;5035412;28;20076;-74
2021/07/04 05:36:15;;;;;;;5.97;4.63;;;;;;;19.94;74.74;100091.28;5030346;28;20037;-74
2021/07/04 05:38:43;;;;;;;5.70;4.43;;;;;;;20.06;74.46;100091.34;5030061;28;20424;-74
2021/07/04 05:41:10;;;;;;;5.47;4.45;;;;;;;20.08;74.71;100081.22;5026644;28;20030;-74
2021/07/04 05:43:36;;;;;;;6.05;4.82;;;;;;;20.11;74.89;100080.75;5013427;28;20430;-75
2021/07/04 05:46:02;;;;;;;5.93;5.00;;;;;;;20.09;74.06;100077.50;5026941;28;20137;-76
2021/07/04 05:48:28;;;;;;;5.47;4.53;;;;;;;20.21;74.16;100074.03;5038944;28;20044;-74
2021/07/04 05:50:54;;;;;;;6.78;4.90;;;;;;;20.30;73.74;100075.34;5029009;28;20057;-74
2021/07/04 05:53:20;;;;;;;5.60;4.68;;;;;;;20.40;73.15;100078.31;5030312;28;20053;-74
2021/07/04 05:55:45;;;;;;;7.55;5.20;;;;;;;20.63;73.41;100088.38;5014551;28;20041;-74
2021/07/04 05:58:11;;;;;;;5.55;4.50;;;;;;;20.96;72.93;100079.81;5016339;28;20030;-74
2021/07/04 06:00:37;;;;;;;5.47;4.55;;;;;;;21.28;71.34;100076.78;5029543;28;20037;-74
2021/07/04 06:03:03;;;;;;;6.32;5.00;;;;;;;21.70;69.61;100070.50;5029932;28;20026;-75
2021/07/04 06:05:28;;;;;;;7.00;4.80;;;;;;;21.64;68.11;100074.94;5018668;28;20034;-74
2021/07/04 06:07:54;;;;;;;5.57;4.70;;;;;;;21.58;69.44;100074.00;5015678;28;20675;-74
2021/07/04 06:10:19;;;;;;;6.72;4.78;;;;;;;21.59;69.59;100070.25;5028877;28;20041;-74
2021/07/04 06:12:45;;;;;;;6.05;5.30;;;;;;;21.53;68.89;100065.03;5038638;28;20044;-75
2021/07/04 06:15:11;;;;;;;6.65;4.78;;;;;;;21.49;68.99;100053.09;5031051;28;20112;-74
2021/07/04 06:17:37;;;;;;;6.05;4.85;;;;;;;21.57;69.07;100055.41;5029864;28;20056;-74
2021/07/04 06:20:05;;;;;;;6.40;5.30;;;;;;;21.54;68.69;100062.06;5028468;28;20579;-75
2021/07/04 06:22:30;;;;;;;5.55;4.85;;;;;;;21.60;69.05;100063.84;5028354;28;20038;-75
2021/07/04 06:24:56;;;;;;;5.80;5.15;;;;;;;21.87;68.50;100060.63;5032166;28;20041;-75
2021/07/04 06:27:21;;;;;;;6.95;4.97;;;;;;;22.13;67.84;100053.88;5033709;28;20049;-74
2021/07/04 06:29:46;;;;;;;5.45;4.38;;;;;;;22.36;67.26;100062.97;5029345;28;20065;-75
2021/07/04 06:32:12;;;;;;;5.75;4.78;;;;;;;22.53;66.60;100063.81;5030032;28;20038;-74
2021/07/04 06:34:37;;;;;;;5.78;4.28;;;;;;;22.82;64.99;100061.91;5044664;28;20064;-74
2021/07/04 06:37:03;;;;;;;4.72;4.22;;;;;;;23.23;64.76;100072.56;5029808;28;20413;-75
2021/07/04 06:39:28;;;;;;;5.75;4.57;;;;;;;23.62;63.18;100068.00;5044253;28;20103;-75
2021/07/04 06:41:53;;;;;;;5.30;4.45;;;;;;;23.50;62.13;100072.66;5028364;28;20041;-74
2021/07/04 06:44:18;;;;;;;6.95;4.97;;;;;;;23.34;63.19;100068.16;5028574;28;20079;-76
2021/07/04 06:46:44;;;;;;;6.65;4.70;;;;;;;23.05;63.06;100066.34;5030802;28;20079;-75
2021/07/04 06:49:09;;;;;;;4.65;4.15;;;;;;;22.97;64.44;100064.03;5065247;28;20063;-75
2021/07/04 06:51:35;;;;;;;6.72;4.53;;;;;;;23.31;64.01;100059.47;5039223;28;20129;-75
2021/07/04 06:54:00;;;;;;;5.15;4.60;;;;;;;23.74;62.15;100065.22;5029853;28;20045;-74
2021/07/04 06:56:25;;;;;;;5.53;4.57;;;;;;;24.07;60.61;100061.56;5028597;28;20041;-75
2021/07/04 06:58:51;;;;;;;5.50;4.40;;;;;;;24.37;58.93;100052.97;5029506;28;20453;-74
2021/07/04 07:01:16;;;;;;;5.57;4.00;;;;;;;24.72;60.37;100056.31;5019450;28;20034;-75
2021/07/04 07:03:41;;;;;;;5.05;4.22;;;;;;;25.12;58.77;100050.44;5019426;28;20071;-74
2021/07/04 07:06:07;;;;;;;6.43;5.10;;;;;;;25.16;58.62;100054.22;5027543;28;20034;-76
2021/07/04 07:08:32;;;;;;;5.55;4.00;;;;;;;25.31;56.85;100042.72;5044550;28;20116;-75
2021/07/04 07:10:57;;;;;;;4.38;3.78;;;;;;;25.47;59.05;100045.53;5031209;28;20129;-75
2021/07/04 07:13:23;;;;;;;5.60;4.20;;;;;;;25.76;57.26;100046.75;5026237;28;20037;-75
2021/07/04 07:15:48;;;;;;;5.00;4.13;;;;;;;25.82;54.87;100042.19;5033511;28;20108;-75
2021/07/04 07:18:14;;;;;;;4.60;4.00;;;;;;;25.92;57.27;100036.81;5039216;28;20065;-75
2021/07/04 07:20:40;;;;;;;4.80;4.22;;;;;;;26.29;54.35;100035.84;5018503;28;20108;-75
2021/07/04 07:23:06;;;;;;;5.75;4.43;;;;;;;26.44;54.05;100041.28;5013726;28;20057;-75
2021/07/04 07:25:31;;;;;;;5.43;4.10;;;;;;;26.44;53.95;100046.72;5030480;28;20069;-75
2021/07/04 07:27:58;;;;;;;6.15;4.05;;;;;;;26.53;54.51;100041.59;5013455;28;20479;-74
2021/07/04 07:30:23;;;;;;;6.55;3.95;;;;;;;26.41;54.82;100038.28;5022716;28;20128;-74
2021/07/04 07:32:49;;;;;;;5.93;4.10;;;;;;;26.17;54.20;100032.56;5043250;28;20284;-74
2021/07/04 07:35:17;;;;;;;4.10;3.70;;;;;;;26.57;54.40;100031.03;5037651;28;20280;-75
2021/07/04 07:37:42;;;;;;;4.80;3.75;;;;;;;26.79;53.98;100033.47;5049641;28;20037;-75
2021/07/04 07:40:08;;;;;;;4.72;3.80;;;;;;;27.10;53.72;100029.66;5036658;28;20504;-75
2021/07/04 07:42:34;;;;;;;4.95;3.80;;;;;;;27.39;51.71;100034.53;5028661;28;20092;-76
2021/07/04 07:45:01;;;;;;;4.95;4.28;;;;;;;27.57;51.11;100024.13;5028800;28;20037;-76
2021/07/04 07:47:27;;;;;;;4.78;3.60;;;;;;;27.73;49.73;100039.28;5035133;28;20512;-75
2021/07/04 07:49:52;;;;;;;4.57;3.50;;;;;;;27.84;51.11;100031.94;5034403;28;20060;-75
2021/07/04 07:52:17;;;;;;;5.25;4.20;;;;;;;27.71;50.26;100031.41;5033056;28;20315;-75
2021/07/04 07:54:43;;;;;;;4.63;3.80;;;;;;;27.43;50.86;100034.78;5033911;28;20031;-76
2021/07/04 07:57:08;;;;;;;5.57;3.70;;;;;;;27.58;50.48;100039.34;5018254;28;20113;-76
2021/07/04 07:59:34;;;;;;;4.63;3.90;;;;;;;27.82;48.57;100036.81;5015273;28;20453;-75
2021/07/04 08:01:59;;;;;;;4.78;3.75;;;;;;;27.63;49.67;100031.19;5026154;28;20029;-76
2021/07/04 08:04:25;;;;;;;9.15;4.20;;;;;;;27.06;50.67;100030.47;5017055;28;20060;-77
2021/07/04 08:06:51;;;;;;;4.72;3.80;;;;;;;27.40;50.77;100024.47;5046798;28;20066;-76
2021/07/04 08:09:16;;;;;;;4.43;3.65;;;;;;;27.41;50.35;100024.19;5041381;28;20034;-75
2021/07/04 08:11:43;;;;;;;5.25;3.83;;;;;;;27.37;48.84;100017.69;5033000;28;20581;-75
2021/07/04 08:14:09;;;;;;;4.07;3.60;;;;;;;27.04;50.79;100013.66;5045444;28;20124;-76
2021/07/04 08:16:34;;;;;;;5.25;4.35;;;;;;;27.24;50.75;100023.69;5027424;28;20479;-75
2021/07/04 08:18:59;;;;;;;3.97;3.53;;;;;;;27.50;50.51;100021.72;5018304;28;20120;-75
2021/07/04 08:21:27;;;;;;;5.15;4.22;;;;;;;27.44;50.17;100020.94;5027386;28;20061;-75
2021/07/04 08:23:53;;;;;;;4.15;3.70;;;;;;;26.83;52.75;100015.56;5039658;28;20048;-75
2021/07/04 08:26:18;;;;;;;4.72;4.05;;;;;;;26.73;51.06;100021.81;5051647;28;20037;-75
2021/07/04 08:28:43;;;;;;;5.57;4.03;;;;;;;26.43;51.66;100017.16;5051683;28;20036;-76
2021/07/04 08:31:09;;;;;;;4.93;4.22;;;;;;;26.19;52.64;100011.41;5024116;28;20036;-76
2021/07/04 08:33:34;;;;;;;4.70;4.05;;;;;;;26.06;53.26;99996.50;5014466;28;20284;-78
2021/07/04 08:36:00;;;;;;;4.70;3.95;;;;;;;25.82;54.93;99991.53;5031853;28;20121;-76
2021/07/04 08:38:26;;;;;;;4.55;3.92;;;;;;;26.13;54.22;99988.13;5031408;28;20041;-75
2021/07/04 08:40:51;;;;;;;6.03;3.60;;;;;;;26.15;53.51;99991.34;5046615;28;20038;-75
2021/07/04 08:43:28;;;;;;;4.28;3.58;;;;;;;26.31;53.19;99984.88;5027563;28;20049;-76
2021/07/04 08:45:54;;;;;;;5.43;4.45;;;;;;;26.75;50.53;99987.09;5029953;28;20040;-75
2021/07/04 08:48:19;;;;;;;4.50;3.85;;;;;;;27.03;51.73;99984.88;5039562;28;20037;-76
2021/07/04 08:50:45;;;;;;;4.50;3.78;;;;;;;27.90;48.82;99984.63;5018566;28;20088;-76
2021/07/04 08:53:10;;;;;;;5.60;4.00;;;;;;;27.72;48.87;99986.88;5025641;28;20029;-76
2021/07/04 08:55:35;;;;;;;5.22;3.72;;;;;;;27.44;49.99;99991.06;5030248;28;20140;-76
2021/07/04 08:58:01;;;;;;;5.38;4.10;;;;;;;27.20;50.44;99984.63;5042344;28;20032;-76
2021/07/04 09:00:27;;;;;;;4.70;4.15;;;;;;;27.93;49.00;99987.59;5041435;28;20045;-76
2021/07/04 09:02:53;;;;;;;4.35;3.53;;;;;;;28.97;48.28;99975.66;5033297;28;20076;-76
2021/07/04 09:05:19;;;;;;;4.40;3.85;;;;;;;30.34;43.55;99981.63;5031379;28;20044;-76
2021/07/04 09:07:46;;;;;;;4.13;3.20;;;;;;;30.80;44.31;99980.88;5031397;28;20410;-76
2021/07/04 09:10:17;;;;;;;4.43;3.50;;;;;;;30.89;43.31;99982.63;5038013;28;20042;-76
2021/07/04 09:12:51;;;;;;;3.75;3.33;;;;;;;29.97;42.94;99977.78;5028974;28;20087;-76
2021/07/04 09:15:22;;;;;;;4.18;3.75;;;;;;;29.41;43.84;99973.84;5030149;28;20034;-73
2021/07/04 09:17:49;;;;;;;4.47;3.70;;;;;;;28.92;46.76;99959.38;5017421;28;20112;-74
2021/07/04 09:20:41;;;;;;;4.38;3.58;;;;;;;28.67;46.74;99959.63;5017900;28;20032;-74
2021/07/04 09:23:06;;;;;;;4.40;3.97;;;;;;;28.69;46.43;99955.53;5027219;28;20064;-73
2021/07/04 09:25:37;;;;;;;4.47;3.70;;;;;;;28.61;45.19;99950.72;5040154;28;20041;-75
2021/07/04 09:28:05;;;;;;;5.43;3.63;;;;;;;28.38;47.49;99950.31;5023642;28;20475;-75
2021/07/04 09:30:34;;;;;;;4.00;3.60;;;;;;;28.57;46.17;99942.28;5022742;28;20084;-75
2021/07/04 09:33:12;;;;;;;5.47;3.53;;;;;;;29.14;46.50;99955.38;5035281;28;20402;-76
2021/07/04 09:35:39;;;;;;;4.18;3.42;;;;;;;29.35;46.63;99937.69;5028637;28;20038;-76
2021/07/04 09:38:16;;;;;;;3.90;3.50;;;;;;;29.21;44.36;99934.88;5018453;28;20030;-76
2021/07/04 09:40:41;;;;;;;5.15;3.45;;;;;;;28.76;45.68;99933.41;5027003;28;20123;-78
2021/07/04 09:43:17;;;;;;;4.10;3.70;;;;;;;28.67;45.94;99935.94;5029063;28;20034;-75
2021/07/04 09:45:59;;;;;;;6.35;4.47;;;;;;;28.52;46.24;99931.47;5025730;28;20041;-76
2021/07/04 09:48:28;;;;;;;5.43;4.18;;;;;;;28.03;46.59;99932.38;5024743;28;20037;-77
2021/07/04 09:50:54;;;;;;;4.50;3.58;;;;;;;27.35;49.24;99918.59;5045997;28;20387;-76
2021/07/04 09:53:21;;;;;;;4.78;3.80;;;;;;;27.12;49.06;99923.53;5031049;28;20061;-76
2021/07/04 09:55:51;;;;;;;4.38;3.85;;;;;;;26.64;50.84;99925.81;5045858;28;20034;-75
2021/07/04 09:58:17;;;;;;;4.63;3.80;;;;;;;26.56;52.60;99927.19;5025768;28;20091;-75
2021/07/04 10:00:44;;;;;;;5.90;4.10;;;;;;;26.80;50.40;99922.00;5031026;28;20029;-75
2021/07/04 10:03:19;;;;;;;4.22;3.67;;;;;;;26.90;50.69;99919.25;5057782;28;20029;-75
2021/07/04 10:05:50;;;;;;;35.10;6.80;;;;;;;27.01;50.40;99920.03;5031158;28;20057;-75
2021/07/04 10:08:19;;;;;;;;;;;;;;;27.03;52.53;99919.75;5024178;28;20064;-75
2021/07/04 10:10:44;;;;;;;160.98;43.03;;;;;;;27.31;51.01;99911.00;5026245;28;19921;-75
2021/07/04 10:13:10;;;;;;;49.83;5.35;;;;;;;27.56;49.66;99909.28;5025267;28;20095;-76
2021/07/04 10:15:35;;;;;;;4.53;3.80;;;;;;;27.88;48.36;99913.44;5016507;28;20064;-76
2021/07/04 10:18:02;;;;;;;4.00;3.40;;;;;;;27.89;49.37;99905.03;5030258;28;20034;-76
2021/07/04 10:20:29;;;;;;;8.32;3.75;;;;;;;28.16;48.02;99893.66;5028155;28;20065;-75
2021/07/04 10:22:54;;;;;;;9.48;4.05;;;;;;;28.30;47.06;99890.31;5029244;28;20053;-76
2021/07/04 10:25:19;;;;;;;4.57;3.67;;;;;;;28.28;46.84;99897.94;5028396;28;20132;-76
2021/07/04 10:27:49;;;;;;;7.35;3.83;;;;;;;28.37;46.20;99891.59;5022400;28;20042;-75
2021/07/04 10:30:15;;;;;;;4.28;3.83;;;;;;;28.22;47.60;99886.31;5027525;28;20124;-75
2021/07/04 10:33:19;;;;;;;4.55;4.05;;;;;;;28.26;47.90;99890.06;5024774;28;20112;-76
2021/07/04 10:36:18;;;;;;;4.60;3.50;;;;;;;27.95;48.39;99884.06;5014906;28;20042;-75
2021/07/04 10:38:56;;;;;;;4.38;3.78;;;;;;;27.80;48.61;99878.72;5025865;28;20498;-75
2021/07/04 10:41:29;;;;;;;4.55;3.95;;;;;;;27.37;48.52;99881.13;5018157;28;20395;-74
2021/07/04 10:43:57;;;;;;;3.80;3.40;;;;;;;27.32;50.39;99871.09;5016841;28;20038;-75
2021/07/04 10:46:42;;;;;;;4.90;3.60;;;;;;;27.48;48.17;99869.09;5026124;28;20041;-75
2021/07/04 10:49:16;;;;;;;4.55;3.78;;;;;;;27.28;48.80;99867.31;5014659;28;20033;-77
2021/07/04 10:52:06;;;;;;;4.70;3.60;;;;;;;27.38;48.26;99863.75;5028431;28;20041;-75
2021/07/04 10:54:40;;;;;;;4.38;3.50;;;;;;;27.45;48.28;99859.63;5032484;28;20506;-75
2021/07/04 10:57:16;;;;;;;5.05;3.40;;;;;;;27.23;50.03;99857.28;5044310;28;20378;-74
2021/07/04 11:00:04;;;;;;;3.80;2.90;;;;;;;27.26;48.71;99853.22;5025576;28;20045;-75
2021/07/04 11:02:54;;;;;;;4.03;3.10;;;;;;;27.26;47.83;99851.28;5032724;28;20088;-75
2021/07/04 11:05:31;;;;;;;3.47;2.95;;;;;;;27.21;47.46;99840.47;5019520;28;20029;-75
2021/07/04 11:07:56;;;;;;;3.58;2.60;;;;;;;27.28;46.79;99851.03;5033292;28;20034;-75
2021/07/04 11:10:40;;;;;;;4.63;3.10;;;;;;;26.69;48.04;99855.28;5022290;28;20645;-76
2021/07/04 11:13:09;;;;;;;4.05;3.00;;;;;;;26.52;49.14;99850.13;5041471;28;20437;-74
2021/07/04 11:15:38;;;;;;;3.75;2.92;;;;;;;26.46;49.62;99856.66;5029347;28;20107;-75
2021/07/04 11:18:15;;;;;;;4.05;3.00;;;;;;;26.36;50.42;99856.66;5048209;28;20050;-75
2021/07/04 11:20:49;;;;;;;3.58;2.97;;;;;;;26.53;49.87;99849.06;5031473;28;20408;-75
2021/07/04 11:23:19;;;;;;;4.25;3.20;;;;;;;26.49;50.22;99850.69;5048829;28;20038;-75
2021/07/04 11:25:53;;;;;;;3.88;3.20;;;;;;;26.37;51.12;99852.88;5031141;28;20045;-75
2021/07/04 11:28:18;;;;;;;4.40;2.95;;;;;;;26.72;50.70;99856.63;5030656;28;20038;-76